sensor_id;sensor_type;location;lat;lon;timestamp;temperature;humidity
13742;DHT22;8461;52.356;10.704;2022-11-20T00:00:28;-2.40;99.90
13742;DHT22;8461;52.356;10.704;2022-11-20T00:02:53;-2.30;99.90
13742;DHT22;8461;52.356;10.704;2022-11-20T00:05:19;-2.30;99.90
13742;DHT22;8461;52.356;10.704;2022-11-20T00:07:46;-2.30;99.90
13742;DHT22;8461;52.356;10.704;2022-11-20T00:10:11;-2.30;99.90
13742;DHT22;8461;52.356;10.704;2022-11-20T00:12:37;-2.30;99.90
13742;DHT22;8461;52.356;10.704;2022-11-20T00:15:03;-2.20;99.90
13742;DHT22;8461;52.356;10.704;2022-11-20T00:17:29;-2.20;99.90
13742;DHT22;8461;52.356;10.704;2022-11-20T00:19:55;-2.20;99.90
13742;DHT22;8461;52.356;10.704;2022-11-20T00:22:20;-2.20;99.90
13742;DHT22;8461;52.356;10.704;2022-11-20T00:24:46;-2.20;99.90
13742;DHT22;8461;52.356;10.704;2022-11-20T00:27:11;-2.20;99.90
13742;DHT22;8461;52.356;10.704;2022-11-20T00:29:37;-2.20;99.90
13742;DHT22;8461;52.356;10.704;2022-11-20T00:32:02;-2.20;99.90
13742;DHT22;8461;52.356;10.704;2022-11-20T00:34:28;-2.20;99.90
13742;DHT22;8461;52.356;10.704;2022-11-20T00:36:53;-2.20;99.90
13742;DHT22;8461;52.356;10.704;2022-11-20T00:39:19;-2.10;99.90
13742;DHT22;8461;52.356;10.704;2022-11-20T00:41:44;-2.10;99.90
13742;DHT22;8461;52.356;10.704;2022-11-20T00:44:10;-2.10;99.90
13742;DHT22;8461;52.356;10.704;2022-11-20T00:46:35;-2.10;99.90
13742;DHT22;8461;52.356;10.704;2022-11-20T00:49:01;-2.10;99.90
13742;DHT22;8461;52.356;10.704;2022-11-20T00:51:27;-2.10;99.90
13742;DHT22;8461;52.356;10.704;2022-11-20T00:53:55;-2.10;99.90
13742;DHT22;8461;52.356;10.704;2022-11-20T00:56:21;-2.10;99.90
13742;DHT22;8461;52.356;10.704;2022-11-20T00:58:48;-2.10;99.90
13742;DHT22;8461;52.356;10.704;2022-11-20T01:01:17;-2.10;99.90
13742;DHT22;8461;52.356;10.704;2022-11-20T01:03:45;-2.10;99.90
13742;DHT22;8461;52.356;10.704;2022-11-20T01:06:21;-2.10;99.90
13742;DHT22;8461;52.356;10.704;2022-11-20T01:08:48;-2.10;99.90
13742;DHT22;8461;52.356;10.704;2022-11-20T01:11:16;-2.10;99.90
13742;DHT22;8461;52.356;10.704;2022-11-20T01:13:42;-2.00;99.90
13742;DHT22;8461;52.356;10.704;2022-11-20T01:16:14;-2.00;99.90
13742;DHT22;8461;52.356;10.704;2022-11-20T01:18:42;-2.00;99.90
13742;DHT22;8461;52.356;10.704;2022-11-20T01:21:11;-2.00;99.90
13742;DHT22;8461;52.356;10.704;2022-11-20T01:23:39;-2.00;99.90
13742;DHT22;8461;52.356;10.704;2022-11-20T01:26:07;-2.00;99.90
13742;DHT22;8461;52.356;10.704;2022-11-20T01:28:33;-2.00;99.90
13742;DHT22;8461;52.356;10.704;2022-11-20T01:30:59;-2.00;99.90
13742;DHT22;8461;52.356;10.704;2022-11-20T01:33:25;-2.00;99.90
13742;DHT22;8461;52.356;10.704;2022-11-20T01:35:51;-2.00;99.90
13742;DHT22;8461;52.356;10.704;2022-11-20T01:38:17;-2.00;99.90
13742;DHT22;8461;52.356;10.704;2022-11-20T01:40:42;-2.00;99.90
13742;DHT22;8461;52.356;10.704;2022-11-20T01:43:18;-2.00;99.90
13742;DHT22;8461;52.356;10.704;2022-11-20T01:48:24;-2.00;99.90
13742;DHT22;8461;52.356;10.704;2022-11-20T01:50:51;-2.00;99.90
13742;DHT22;8461;52.356;10.704;2022-11-20T01:53:18;-1.90;99.90
13742;DHT22;8461;52.356;10.704;2022-11-20T01:55:53;-1.90;99.90
13742;DHT22;8461;52.356;10.704;2022-11-20T01:58:28;-1.90;99.90
13742;DHT22;8461;52.356;10.704;2022-11-20T02:00:55;-1.90;99.90
13742;DHT22;8461;52.356;10.704;2022-11-20T02:03:21;-1.90;99.90
13742;DHT22;8461;52.356;10.704;2022-11-20T02:06:20;-1.90;99.90
13742;DHT22;8461;52.356;10.704;2022-11-20T02:08:48;-1.80;99.90
13742;DHT22;8461;52.356;10.704;2022-11-20T02:11:13;-1.90;99.90
13742;DHT22;8461;52.356;10.704;2022-11-20T02:13:39;-1.80;99.90
13742;DHT22;8461;52.356;10.704;2022-11-20T02:18:42;-1.80;99.90
13742;DHT22;8461;52.356;10.704;2022-11-20T02:21:33;-1.80;99.90
13742;DHT22;8461;52.356;10.704;2022-11-20T02:24:14;-1.90;99.90
13742;DHT22;8461;52.356;10.704;2022-11-20T02:27:00;-1.90;99.90
13742;DHT22;8461;52.356;10.704;2022-11-20T02:29:32;-1.90;99.90
13742;DHT22;8461;52.356;10.704;2022-11-20T02:32:00;-1.90;99.90
13742;DHT22;8461;52.356;10.704;2022-11-20T02:34:26;-1.90;99.90
13742;DHT22;8461;52.356;10.704;2022-11-20T02:36:52;-1.90;99.90
13742;DHT22;8461;52.356;10.704;2022-11-20T02:39:19;-1.90;99.90
13742;DHT22;8461;52.356;10.704;2022-11-20T02:41:46;-1.90;99.90
13742;DHT22;8461;52.356;10.704;2022-11-20T02:44:12;-1.90;99.90
13742;DHT22;8461;52.356;10.704;2022-11-20T02:46:38;-1.90;99.90
13742;DHT22;8461;52.356;10.704;2022-11-20T02:49:04;-2.00;99.90
13742;DHT22;8461;52.356;10.704;2022-11-20T02:51:30;-2.00;99.90
13742;DHT22;8461;52.356;10.704;2022-11-20T02:53:56;-2.00;99.90
13742;DHT22;8461;52.356;10.704;2022-11-20T02:56:22;-2.00;99.90
13742;DHT22;8461;52.356;10.704;2022-11-20T02:58:48;-2.00;99.90
13742;DHT22;8461;52.356;10.704;2022-11-20T03:01:13;-2.00;99.90
13742;DHT22;8461;52.356;10.704;2022-11-20T03:03:39;-2.00;99.90
13742;DHT22;8461;52.356;10.704;2022-11-20T03:06:04;-2.00;99.90
13742;DHT22;8461;52.356;10.704;2022-11-20T03:08:30;-2.00;99.90
13742;DHT22;8461;52.356;10.704;2022-11-20T03:10:56;-2.10;99.90
13742;DHT22;8461;52.356;10.704;2022-11-20T03:13:21;-2.10;99.90
13742;DHT22;8461;52.356;10.704;2022-11-20T03:15:47;-2.10;99.90
13742;DHT22;8461;52.356;10.704;2022-11-20T03:18:12;-2.10;99.90
13742;DHT22;8461;52.356;10.704;2022-11-20T03:20:39;-2.10;99.90
13742;DHT22;8461;52.356;10.704;2022-11-20T03:23:05;-2.10;99.90
13742;DHT22;8461;52.356;10.704;2022-11-20T03:25:30;-2.10;99.90
13742;DHT22;8461;52.356;10.704;2022-11-20T03:27:56;-2.10;99.90
13742;DHT22;8461;52.356;10.704;2022-11-20T03:30:21;-2.10;99.90
13742;DHT22;8461;52.356;10.704;2022-11-20T03:32:47;-2.10;99.90
13742;DHT22;8461;52.356;10.704;2022-11-20T03:35:13;-2.20;99.90
13742;DHT22;8461;52.356;10.704;2022-11-20T03:37:38;-2.20;99.90
13742;DHT22;8461;52.356;10.704;2022-11-20T03:40:04;-2.20;99.90
13742;DHT22;8461;52.356;10.704;2022-11-20T03:42:30;-2.20;99.90
13742;DHT22;8461;52.356;10.704;2022-11-20T03:45:12;-2.30;99.90
13742;DHT22;8461;52.356;10.704;2022-11-20T03:47:38;-2.30;99.90
13742;DHT22;8461;52.356;10.704;2022-11-20T03:50:04;-2.30;99.90
13742;DHT22;8461;52.356;10.704;2022-11-20T03:52:30;-2.30;99.90
13742;DHT22;8461;52.356;10.704;2022-11-20T03:54:55;-2.30;99.90
13742;DHT22;8461;52.356;10.704;2022-11-20T03:57:21;-2.30;99.90
13742;DHT22;8461;52.356;10.704;2022-11-20T03:59:46;-2.40;99.90
13742;DHT22;8461;52.356;10.704;2022-11-20T04:02:12;-2.40;99.90
13742;DHT22;8461;52.356;10.704;2022-11-20T04:04:37;-2.40;99.90
13742;DHT22;8461;52.356;10.704;2022-11-20T04:07:03;-2.50;99.90
13742;DHT22;8461;52.356;10.704;2022-11-20T04:09:28;-2.50;99.90
13742;DHT22;8461;52.356;10.704;2022-11-20T04:11:54;-2.50;99.90
13742;DHT22;8461;52.356;10.704;2022-11-20T04:14:20;-2.50;99.90
13742;DHT22;8461;52.356;10.704;2022-11-20T04:16:45;-2.60;99.90
13742;DHT22;8461;52.356;10.704;2022-11-20T04:19:13;-2.60;99.90
13742;DHT22;8461;52.356;10.704;2022-11-20T04:21:39;-2.60;99.90
13742;DHT22;8461;52.356;10.704;2022-11-20T04:24:05;-2.60;99.90
13742;DHT22;8461;52.356;10.704;2022-11-20T04:26:31;-2.60;99.90
13742;DHT22;8461;52.356;10.704;2022-11-20T04:28:57;-2.60;99.90
13742;DHT22;8461;52.356;10.704;2022-11-20T04:31:26;-2.60;99.90
13742;DHT22;8461;52.356;10.704;2022-11-20T04:33:51;-2.60;99.90
13742;DHT22;8461;52.356;10.704;2022-11-20T04:36:25;-2.60;99.90
13742;DHT22;8461;52.356;10.704;2022-11-20T04:38:52;-2.50;99.90
13742;DHT22;8461;52.356;10.704;2022-11-20T04:41:20;-2.50;99.90
13742;DHT22;8461;52.356;10.704;2022-11-20T04:43:48;-2.50;99.90
13742;DHT22;8461;52.356;10.704;2022-11-20T04:46:14;-2.50;99.90
13742;DHT22;8461;52.356;10.704;2022-11-20T04:48:40;-2.50;99.90
13742;DHT22;8461;52.356;10.704;2022-11-20T04:51:05;-2.50;99.90
13742;DHT22;8461;52.356;10.704;2022-11-20T04:53:31;-2.60;99.90
13742;DHT22;8461;52.356;10.704;2022-11-20T04:56:04;-2.60;99.90
13742;DHT22;8461;52.356;10.704;2022-11-20T04:58:30;-2.50;99.90
13742;DHT22;8461;52.356;10.704;2022-11-20T05:01:16;-2.50;99.90
13742;DHT22;8461;52.356;10.704;2022-11-20T05:03:43;-2.50;99.90
13742;DHT22;8461;52.356;10.704;2022-11-20T05:06:10;-2.50;99.90
13742;DHT22;8461;52.356;10.704;2022-11-20T05:08:35;-2.50;99.90
13742;DHT22;8461;52.356;10.704;2022-11-20T05:11:06;-2.40;99.90
13742;DHT22;8461;52.356;10.704;2022-11-20T05:13:31;-2.40;99.90
13742;DHT22;8461;52.356;10.704;2022-11-20T05:16:05;-2.40;99.90
13742;DHT22;8461;52.356;10.704;2022-11-20T05:18:33;-2.40;99.90
13742;DHT22;8461;52.356;10.704;2022-11-20T05:20:59;-2.40;99.90
13742;DHT22;8461;52.356;10.704;2022-11-20T05:23:28;-2.30;99.90
13742;DHT22;8461;52.356;10.704;2022-11-20T05:25:55;-2.30;99.90
13742;DHT22;8461;52.356;10.704;2022-11-20T05:28:22;-2.30;99.90
13742;DHT22;8461;52.356;10.704;2022-11-20T05:30:48;-2.30;99.90
13742;DHT22;8461;52.356;10.704;2022-11-20T05:33:14;-2.30;99.90
13742;DHT22;8461;52.356;10.704;2022-11-20T05:35:39;-2.30;99.90
13742;DHT22;8461;52.356;10.704;2022-11-20T05:38:05;-2.30;99.90
13742;DHT22;8461;52.356;10.704;2022-11-20T05:40:31;-2.30;99.90
13742;DHT22;8461;52.356;10.704;2022-11-20T05:42:56;-2.30;99.90
13742;DHT22;8461;52.356;10.704;2022-11-20T05:45:22;-2.40;99.90
13742;DHT22;8461;52.356;10.704;2022-11-20T05:47:47;-2.40;99.90
13742;DHT22;8461;52.356;10.704;2022-11-20T05:50:13;-2.30;99.90
13742;DHT22;8461;52.356;10.704;2022-11-20T05:52:40;-2.30;99.90
13742;DHT22;8461;52.356;10.704;2022-11-20T05:55:06;-2.30;99.90
13742;DHT22;8461;52.356;10.704;2022-11-20T05:57:32;-2.30;99.90
13742;DHT22;8461;52.356;10.704;2022-11-20T05:59:57;-2.30;99.90
13742;DHT22;8461;52.356;10.704;2022-11-20T06:02:23;-2.20;99.90
13742;DHT22;8461;52.356;10.704;2022-11-20T06:04:49;-2.20;99.90
13742;DHT22;8461;52.356;10.704;2022-11-20T06:07:14;-2.20;99.90
13742;DHT22;8461;52.356;10.704;2022-11-20T06:09:40;-2.20;99.90
13742;DHT22;8461;52.356;10.704;2022-11-20T06:12:06;-2.20;99.90
13742;DHT22;8461;52.356;10.704;2022-11-20T06:14:32;-2.20;99.90
13742;DHT22;8461;52.356;10.704;2022-11-20T06:16:58;-2.20;99.90
13742;DHT22;8461;52.356;10.704;2022-11-20T06:19:23;-2.20;99.90
13742;DHT22;8461;52.356;10.704;2022-11-20T06:21:49;-2.10;99.90
13742;DHT22;8461;52.356;10.704;2022-11-20T06:24:15;-2.20;99.90
13742;DHT22;8461;52.356;10.704;2022-11-20T06:26:41;-2.20;99.90
13742;DHT22;8461;52.356;10.704;2022-11-20T06:29:06;-2.20;99.90
13742;DHT22;8461;52.356;10.704;2022-11-20T06:31:32;-2.20;99.90
13742;DHT22;8461;52.356;10.704;2022-11-20T06:34:03;-2.20;99.90
13742;DHT22;8461;52.356;10.704;2022-11-20T06:36:29;-2.20;99.90
13742;DHT22;8461;52.356;10.704;2022-11-20T06:38:55;-2.20;99.90
13742;DHT22;8461;52.356;10.704;2022-11-20T06:41:21;-2.20;99.90
13742;DHT22;8461;52.356;10.704;2022-11-20T06:43:47;-2.20;99.90
13742;DHT22;8461;52.356;10.704;2022-11-20T06:46:15;-2.20;99.90
13742;DHT22;8461;52.356;10.704;2022-11-20T06:48:43;-2.20;99.90
13742;DHT22;8461;52.356;10.704;2022-11-20T06:51:09;-2.20;99.90
13742;DHT22;8461;52.356;10.704;2022-11-20T06:53:35;-2.20;99.90
13742;DHT22;8461;52.356;10.704;2022-11-20T06:56:01;-2.20;99.90
13742;DHT22;8461;52.356;10.704;2022-11-20T06:58:29;-2.10;99.90
13742;DHT22;8461;52.356;10.704;2022-11-20T07:01:01;-2.10;99.90
13742;DHT22;8461;52.356;10.704;2022-11-20T07:03:27;-2.10;99.90
13742;DHT22;8461;52.356;10.704;2022-11-20T07:05:56;-2.10;99.90
13742;DHT22;8461;52.356;10.704;2022-11-20T07:08:23;-2.10;99.90
13742;DHT22;8461;52.356;10.704;2022-11-20T07:10:48;-2.10;99.90
13742;DHT22;8461;52.356;10.704;2022-11-20T07:13:14;-2.10;99.90
13742;DHT22;8461;52.356;10.704;2022-11-20T07:15:39;-2.10;99.90
13742;DHT22;8461;52.356;10.704;2022-11-20T07:18:05;-2.10;99.90
13742;DHT22;8461;52.356;10.704;2022-11-20T07:20:30;-2.00;99.90
13742;DHT22;8461;52.356;10.704;2022-11-20T07:22:57;-2.00;99.90
13742;DHT22;8461;52.356;10.704;2022-11-20T07:25:26;-2.00;99.90
13742;DHT22;8461;52.356;10.704;2022-11-20T07:27:56;-2.00;99.90
13742;DHT22;8461;52.356;10.704;2022-11-20T07:30:21;-2.00;99.90
13742;DHT22;8461;52.356;10.704;2022-11-20T07:32:50;-2.00;99.90
13742;DHT22;8461;52.356;10.704;2022-11-20T07:35:16;-2.00;99.90
13742;DHT22;8461;52.356;10.704;2022-11-20T07:37:41;-1.90;99.90
13742;DHT22;8461;52.356;10.704;2022-11-20T07:40:07;-1.90;99.90
13742;DHT22;8461;52.356;10.704;2022-11-20T07:42:33;-1.90;99.90
13742;DHT22;8461;52.356;10.704;2022-11-20T07:44:58;-1.90;99.90
13742;DHT22;8461;52.356;10.704;2022-11-20T07:47:24;-1.90;99.90
13742;DHT22;8461;52.356;10.704;2022-11-20T07:49:50;-1.90;99.90
13742;DHT22;8461;52.356;10.704;2022-11-20T07:52:15;-1.90;99.90
13742;DHT22;8461;52.356;10.704;2022-11-20T07:54:41;-1.90;99.90
13742;DHT22;8461;52.356;10.704;2022-11-20T07:57:06;-1.90;99.90
13742;DHT22;8461;52.356;10.704;2022-11-20T07:59:32;-1.90;99.90
13742;DHT22;8461;52.356;10.704;2022-11-20T08:01:57;-1.80;99.90
13742;DHT22;8461;52.356;10.704;2022-11-20T08:04:23;-1.80;99.90
13742;DHT22;8461;52.356;10.704;2022-11-20T08:06:49;-1.80;99.90
13742;DHT22;8461;52.356;10.704;2022-11-20T08:09:14;-1.80;99.90
13742;DHT22;8461;52.356;10.704;2022-11-20T08:11:40;-1.80;99.90
13742;DHT22;8461;52.356;10.704;2022-11-20T08:14:24;-1.70;99.90
13742;DHT22;8461;52.356;10.704;2022-11-20T08:16:49;-1.70;99.90
13742;DHT22;8461;52.356;10.704;2022-11-20T08:19:17;-1.60;99.90
13742;DHT22;8461;52.356;10.704;2022-11-20T08:21:43;-1.60;99.90
13742;DHT22;8461;52.356;10.704;2022-11-20T08:24:10;-1.60;99.90
13742;DHT22;8461;52.356;10.704;2022-11-20T08:26:37;-1.50;99.90
13742;DHT22;8461;52.356;10.704;2022-11-20T08:29:03;-1.50;99.90
13742;DHT22;8461;52.356;10.704;2022-11-20T08:31:29;-1.50;99.90
13742;DHT22;8461;52.356;10.704;2022-11-20T08:33:55;-1.50;99.90
13742;DHT22;8461;52.356;10.704;2022-11-20T08:36:22;-1.50;99.90
13742;DHT22;8461;52.356;10.704;2022-11-20T08:38:49;-1.40;99.90
13742;DHT22;8461;52.356;10.704;2022-11-20T08:41:15;-1.30;99.90
13742;DHT22;8461;52.356;10.704;2022-11-20T08:43:52;-1.30;99.90
13742;DHT22;8461;52.356;10.704;2022-11-20T08:46:19;-1.30;99.90
13742;DHT22;8461;52.356;10.704;2022-11-20T08:48:44;-1.20;99.90
13742;DHT22;8461;52.356;10.704;2022-11-20T08:51:10;-1.10;99.90
13742;DHT22;8461;52.356;10.704;2022-11-20T08:53:37;-1.10;99.90
13742;DHT22;8461;52.356;10.704;2022-11-20T08:56:02;-1.00;99.90
13742;DHT22;8461;52.356;10.704;2022-11-20T08:58:28;-1.00;99.90
13742;DHT22;8461;52.356;10.704;2022-11-20T09:00:53;-1.00;99.90
13742;DHT22;8461;52.356;10.704;2022-11-20T09:03:19;-1.00;99.90
13742;DHT22;8461;52.356;10.704;2022-11-20T09:05:45;-0.90;99.90
13742;DHT22;8461;52.356;10.704;2022-11-20T09:08:10;-0.90;99.90
13742;DHT22;8461;52.356;10.704;2022-11-20T09:10:36;-0.80;99.90
13742;DHT22;8461;52.356;10.704;2022-11-20T09:13:05;-0.80;99.90
13742;DHT22;8461;52.356;10.704;2022-11-20T09:15:30;-0.70;99.90
13742;DHT22;8461;52.356;10.704;2022-11-20T09:18:01;-0.60;99.90
13742;DHT22;8461;52.356;10.704;2022-11-20T09:20:28;-0.60;99.90
13742;DHT22;8461;52.356;10.704;2022-11-20T09:22:54;-0.70;99.90
13742;DHT22;8461;52.356;10.704;2022-11-20T09:25:20;-0.70;99.90
13742;DHT22;8461;52.356;10.704;2022-11-20T09:27:46;-0.60;99.90
13742;DHT22;8461;52.356;10.704;2022-11-20T09:30:13;-0.50;99.90
13742;DHT22;8461;52.356;10.704;2022-11-20T09:32:39;-0.30;99.90
13742;DHT22;8461;52.356;10.704;2022-11-20T09:35:05;-0.10;99.90
13742;DHT22;8461;52.356;10.704;2022-11-20T09:37:31;0.00;99.90
13742;DHT22;8461;52.356;10.704;2022-11-20T09:39:56;0.00;99.90
13742;DHT22;8461;52.356;10.704;2022-11-20T09:42:39;-0.10;99.90
13742;DHT22;8461;52.356;10.704;2022-11-20T09:50:53;0.10;99.90
13742;DHT22;8461;52.356;10.704;2022-11-20T09:53:35;0.10;99.90
13742;DHT22;8461;52.356;10.704;2022-11-20T09:56:09;0.10;99.90
13742;DHT22;8461;52.356;10.704;2022-11-20T09:58:45;0.10;99.90
13742;DHT22;8461;52.356;10.704;2022-11-20T10:01:17;0.10;99.90
13742;DHT22;8461;52.356;10.704;2022-11-20T10:04:06;0.20;99.90
13742;DHT22;8461;52.356;10.704;2022-11-20T10:06:41;0.40;99.90
13742;DHT22;8461;52.356;10.704;2022-11-20T10:20:12;0.50;99.90
13742;DHT22;8461;52.356;10.704;2022-11-20T10:31:24;0.30;99.90
13742;DHT22;8461;52.356;10.704;2022-11-20T10:33:52;0.40;99.90
13742;DHT22;8461;52.356;10.704;2022-11-20T10:36:21;0.50;99.90
13742;DHT22;8461;52.356;10.704;2022-11-20T10:38:56;0.30;99.90
13742;DHT22;8461;52.356;10.704;2022-11-20T10:41:27;0.50;99.90
13742;DHT22;8461;52.356;10.704;2022-11-20T10:44:14;0.50;99.90
13742;DHT22;8461;52.356;10.704;2022-11-20T10:47:00;0.60;99.90
13742;DHT22;8461;52.356;10.704;2022-11-20T10:49:26;0.70;99.90
13742;DHT22;8461;52.356;10.704;2022-11-20T10:55:31;0.60;99.90
13742;DHT22;8461;52.356;10.704;2022-11-20T10:58:19;0.60;99.90
13742;DHT22;8461;52.356;10.704;2022-11-20T11:00:47;0.60;99.90
13742;DHT22;8461;52.356;10.704;2022-11-20T11:03:27;0.70;99.90
13742;DHT22;8461;52.356;10.704;2022-11-20T11:06:07;0.70;99.90
13742;DHT22;8461;52.356;10.704;2022-11-20T11:08:39;0.80;99.90
13742;DHT22;8461;52.356;10.704;2022-11-20T11:11:22;0.70;99.90
13742;DHT22;8461;52.356;10.704;2022-11-20T11:13:49;0.90;99.90
13742;DHT22;8461;52.356;10.704;2022-11-20T11:16:25;1.00;99.90
13742;DHT22;8461;52.356;10.704;2022-11-20T11:19:02;1.10;99.90
13742;DHT22;8461;52.356;10.704;2022-11-20T11:21:29;1.20;99.90
13742;DHT22;8461;52.356;10.704;2022-11-20T11:24:00;1.20;99.90
13742;DHT22;8461;52.356;10.704;2022-11-20T11:26:26;1.20;99.90
13742;DHT22;8461;52.356;10.704;2022-11-20T11:29:00;1.10;99.90
13742;DHT22;8461;52.356;10.704;2022-11-20T11:31:30;1.30;99.90
13742;DHT22;8461;52.356;10.704;2022-11-20T11:34:15;1.30;99.90
13742;DHT22;8461;52.356;10.704;2022-11-20T11:36:56;1.40;99.90
13742;DHT22;8461;52.356;10.704;2022-11-20T11:39:23;1.30;99.90
13742;DHT22;8461;52.356;10.704;2022-11-20T11:41:49;1.20;99.90
13742;DHT22;8461;52.356;10.704;2022-11-20T11:44:28;1.20;99.90
13742;DHT22;8461;52.356;10.704;2022-11-20T11:47:42;1.30;99.90
13742;DHT22;8461;52.356;10.704;2022-11-20T11:55:15;1.30;99.90
13742;DHT22;8461;52.356;10.704;2022-11-20T12:00:54;1.10;99.90
13742;DHT22;8461;52.356;10.704;2022-11-20T12:03:29;1.00;99.90
13742;DHT22;8461;52.356;10.704;2022-11-20T12:06:15;0.90;99.90
13742;DHT22;8461;52.356;10.704;2022-11-20T12:08:49;0.70;99.90
13742;DHT22;8461;52.356;10.704;2022-11-20T12:11:24;0.60;99.90
13742;DHT22;8461;52.356;10.704;2022-11-20T12:14:02;0.60;99.90
13742;DHT22;8461;52.356;10.704;2022-11-20T12:16:38;0.50;99.90
13742;DHT22;8461;52.356;10.704;2022-11-20T12:19:11;0.40;99.90
13742;DHT22;8461;52.356;10.704;2022-11-20T12:30:17;0.40;99.90
13742;DHT22;8461;52.356;10.704;2022-11-20T12:35:58;0.40;99.90
13742;DHT22;8461;52.356;10.704;2022-11-20T12:44:31;0.50;99.90
13742;DHT22;8461;52.356;10.704;2022-11-20T12:53:15;0.50;99.90
13742;DHT22;8461;52.356;10.704;2022-11-20T12:58:42;0.60;99.90
13742;DHT22;8461;52.356;10.704;2022-11-20T13:07:07;0.20;99.90
13742;DHT22;8461;52.356;10.704;2022-11-20T13:09:48;0.10;99.90
13742;DHT22;8461;52.356;10.704;2022-11-20T13:15:42;0.30;99.90
13742;DHT22;8461;52.356;10.704;2022-11-20T13:18:01;0.50;99.90
13742;DHT22;8461;52.356;10.704;2022-11-20T13:20:29;0.60;99.90
13742;DHT22;8461;52.356;10.704;2022-11-20T13:22:56;0.50;99.90
13742;DHT22;8461;52.356;10.704;2022-11-20T13:25:30;0.40;99.90
13742;DHT22;8461;52.356;10.704;2022-11-20T13:27:57;0.40;99.90
13742;DHT22;8461;52.356;10.704;2022-11-20T13:30:25;0.50;99.90
13742;DHT22;8461;52.356;10.704;2022-11-20T13:32:52;0.50;99.90
13742;DHT22;8461;52.356;10.704;2022-11-20T13:35:35;0.50;99.90
13742;DHT22;8461;52.356;10.704;2022-11-20T13:38:22;0.60;99.90
13742;DHT22;8461;52.356;10.704;2022-11-20T13:40:57;0.60;99.90
13742;DHT22;8461;52.356;10.704;2022-11-20T13:43:36;0.70;99.90
13742;DHT22;8461;52.356;10.704;2022-11-20T13:46:07;0.80;99.90
13742;DHT22;8461;52.356;10.704;2022-11-20T13:48:38;0.90;99.90
13742;DHT22;8461;52.356;10.704;2022-11-20T13:56:59;0.80;99.90
13742;DHT22;8461;52.356;10.704;2022-11-20T14:02:13;0.80;99.90
13742;DHT22;8461;52.356;10.704;2022-11-20T14:04:43;0.80;99.90
13742;DHT22;8461;52.356;10.704;2022-11-20T14:07:10;0.80;99.90
13742;DHT22;8461;52.356;10.704;2022-11-20T14:09:36;0.70;99.90
13742;DHT22;8461;52.356;10.704;2022-11-20T14:12:03;0.60;99.90
13742;DHT22;8461;52.356;10.704;2022-11-20T14:14:30;0.60;99.90
13742;DHT22;8461;52.356;10.704;2022-11-20T14:17:28;0.50;99.90
13742;DHT22;8461;52.356;10.704;2022-11-20T14:20:05;0.40;99.90
13742;DHT22;8461;52.356;10.704;2022-11-20T14:22:31;0.30;99.90
13742;DHT22;8461;52.356;10.704;2022-11-20T14:27:37;0.20;99.90
13742;DHT22;8461;52.356;10.704;2022-11-20T14:30:04;0.20;99.90
13742;DHT22;8461;52.356;10.704;2022-11-20T14:32:31;0.10;99.90
13742;DHT22;8461;52.356;10.704;2022-11-20T14:35:03;0.10;99.90
13742;DHT22;8461;52.356;10.704;2022-11-20T14:37:37;0.10;99.90
13742;DHT22;8461;52.356;10.704;2022-11-20T14:40:21;0.10;99.90
13742;DHT22;8461;52.356;10.704;2022-11-20T14:42:46;0.10;99.90
13742;DHT22;8461;52.356;10.704;2022-11-20T14:45:12;0.10;99.90
13742;DHT22;8461;52.356;10.704;2022-11-20T14:47:38;0.10;99.90
13742;DHT22;8461;52.356;10.704;2022-11-20T14:50:13;0.10;99.90
13742;DHT22;8461;52.356;10.704;2022-11-20T14:52:50;0.10;99.90
13742;DHT22;8461;52.356;10.704;2022-11-20T14:55:32;0.10;99.90
13742;DHT22;8461;52.356;10.704;2022-11-20T14:58:00;0.10;99.90
13742;DHT22;8461;52.356;10.704;2022-11-20T15:00:27;0.20;99.90
13742;DHT22;8461;52.356;10.704;2022-11-20T15:02:53;0.20;99.90
13742;DHT22;8461;52.356;10.704;2022-11-20T15:05:25;0.20;99.90
13742;DHT22;8461;52.356;10.704;2022-11-20T15:08:13;0.20;99.90
13742;DHT22;8461;52.356;10.704;2022-11-20T15:10:38;0.20;99.90
13742;DHT22;8461;52.356;10.704;2022-11-20T15:13:16;0.20;99.90
13742;DHT22;8461;52.356;10.704;2022-11-20T15:15:48;0.20;99.90
13742;DHT22;8461;52.356;10.704;2022-11-20T15:18:20;0.20;99.90
13742;DHT22;8461;52.356;10.704;2022-11-20T15:20:47;0.20;99.90
13742;DHT22;8461;52.356;10.704;2022-11-20T15:23:15;0.20;99.90
13742;DHT22;8461;52.356;10.704;2022-11-20T15:25:41;0.20;99.90
13742;DHT22;8461;52.356;10.704;2022-11-20T15:28:30;0.20;99.90
13742;DHT22;8461;52.356;10.704;2022-11-20T15:30:56;0.20;99.90
13742;DHT22;8461;52.356;10.704;2022-11-20T15:33:22;0.20;99.90
13742;DHT22;8461;52.356;10.704;2022-11-20T15:35:47;0.20;99.90
13742;DHT22;8461;52.356;10.704;2022-11-20T15:38:13;0.20;99.90
13742;DHT22;8461;52.356;10.704;2022-11-20T15:40:38;0.20;99.90
13742;DHT22;8461;52.356;10.704;2022-11-20T15:43:04;0.20;99.90
13742;DHT22;8461;52.356;10.704;2022-11-20T15:45:38;0.10;99.90
13742;DHT22;8461;52.356;10.704;2022-11-20T15:48:27;0.10;99.90
13742;DHT22;8461;52.356;10.704;2022-11-20T15:53:36;0.10;99.90
13742;DHT22;8461;52.356;10.704;2022-11-20T15:56:02;0.10;99.90
13742;DHT22;8461;52.356;10.704;2022-11-20T15:58:28;0.00;99.90
13742;DHT22;8461;52.356;10.704;2022-11-20T16:00:54;0.00;99.90
13742;DHT22;8461;52.356;10.704;2022-11-20T16:03:20;0.00;99.90
13742;DHT22;8461;52.356;10.704;2022-11-20T16:05:45;-0.10;99.90
13742;DHT22;8461;52.356;10.704;2022-11-20T16:08:11;-0.10;99.90
13742;DHT22;8461;52.356;10.704;2022-11-20T16:10:37;-0.20;99.90
13742;DHT22;8461;52.356;10.704;2022-11-20T16:13:08;-0.20;99.90
13742;DHT22;8461;52.356;10.704;2022-11-20T16:15:58;-0.30;99.90
13742;DHT22;8461;52.356;10.704;2022-11-20T16:18:24;-0.30;99.90
13742;DHT22;8461;52.356;10.704;2022-11-20T16:20:53;-0.50;99.90
13742;DHT22;8461;52.356;10.704;2022-11-20T16:23:20;-0.50;99.90
13742;DHT22;8461;52.356;10.704;2022-11-20T16:25:46;-0.60;99.90
13742;DHT22;8461;52.356;10.704;2022-11-20T16:28:12;-0.60;99.90
13742;DHT22;8461;52.356;10.704;2022-11-20T16:30:38;-0.70;99.90
13742;DHT22;8461;52.356;10.704;2022-11-20T16:33:08;-0.80;99.90
13742;DHT22;8461;52.356;10.704;2022-11-20T16:35:34;-0.80;99.90
13742;DHT22;8461;52.356;10.704;2022-11-20T16:38:00;-0.90;99.90
13742;DHT22;8461;52.356;10.704;2022-11-20T16:40:25;-0.90;99.90
13742;DHT22;8461;52.356;10.704;2022-11-20T16:42:51;-1.00;99.90
13742;DHT22;8461;52.356;10.704;2022-11-20T16:45:17;-1.00;99.90
13742;DHT22;8461;52.356;10.704;2022-11-20T16:47:43;-1.10;99.90
13742;DHT22;8461;52.356;10.704;2022-11-20T16:50:09;-1.10;99.90
13742;DHT22;8461;52.356;10.704;2022-11-20T16:52:34;-1.30;99.90
13742;DHT22;8461;52.356;10.704;2022-11-20T16:55:00;-1.30;99.90
13742;DHT22;8461;52.356;10.704;2022-11-20T16:57:29;-1.40;99.90
13742;DHT22;8461;52.356;10.704;2022-11-20T16:59:56;-1.40;99.90
13742;DHT22;8461;52.356;10.704;2022-11-20T17:02:21;-1.40;99.90
13742;DHT22;8461;52.356;10.704;2022-11-20T17:04:47;-1.40;99.90
13742;DHT22;8461;52.356;10.704;2022-11-20T17:07:12;-1.50;99.90
13742;DHT22;8461;52.356;10.704;2022-11-20T17:09:38;-1.60;99.90
13742;DHT22;8461;52.356;10.704;2022-11-20T17:12:04;-1.60;99.90
13742;DHT22;8461;52.356;10.704;2022-11-20T17:14:30;-1.60;99.90
13742;DHT22;8461;52.356;10.704;2022-11-20T17:16:56;-1.70;99.90